Pleasant Hope, Missouri
Current Conditions -  °F | °C
As of 1:52 AM on Thursday 29 Jan 2015 (Local Time) from KSGF Reporting Station
Clear Clear  
Wind Chill: 60°   Ceiling: Unl
Heat Index: 60°   Visibility: 10mi
Dew Point: 38°   Wind: 17mph
Humidity: 44%   Direction: 280°W
Pressure: 29.9"   Gusts: 25mph
Location:  37.46°N, 93.27°W
Report Text: KSGF 290752Z 28015G22KT 10SM CLR 16/03 A2990 RMK AO2 SLP119 T01560033
Loading
Personal Weather Stations






























Interactive Weather Map New forecast layout! Learn more

10-Day Weather Forecast

Advertisements
Track Severe Weather on mobile